sensor_id;sensor_type;location;lat;lon;timestamp;pressure;altitude;pressure_sealevel;temperature;humidity
67397;BME280;57728;50.448;18.824;2023-04-30T00:00:35;97708.41;;;11.74;79.04
67397;BME280;57728;50.448;18.824;2023-04-30T00:02:37;97714.78;;;11.79;78.77
67397;BME280;57728;50.448;18.824;2023-04-30T00:04:38;97747.56;;;11.96;78.64
67397;BME280;57728;50.448;18.824;2023-04-30T00:06:40;97746.72;;;11.96;78.74
67397;BME280;57728;50.448;18.824;2023-04-30T00:08:41;97716.84;;;11.72;78.55
67397;BME280;57728;50.448;18.824;2023-04-30T00:10:43;97724.28;;;11.77;78.45
67397;BME280;57728;50.448;18.824;2023-04-30T00:12:45;97752.44;;;11.94;78.43
67397;BME280;57728;50.448;18.824;2023-04-30T00:14:46;97657.88;;;11.37;78.33
67397;BME280;57728;50.448;18.824;2023-04-30T00:16:49;97748.50;;;11.90;78.42
67397;BME280;57728;50.448;18.824;2023-04-30T00:18:51;97739.75;;;11.88;78.58
67397;BME280;57728;50.448;18.824;2023-04-30T00:20:52;97664.16;;;11.38;78.65
67397;BME280;57728;50.448;18.824;2023-04-30T00:22:53;97746.88;;;11.89;78.59
67397;BME280;57728;50.448;18.824;2023-04-30T00:24:56;97741.88;;;11.86;78.37
67397;BME280;57728;50.448;18.824;2023-04-30T00:26:57;97738.75;;;11.77;78.46
67397;BME280;57728;50.448;18.824;2023-04-30T00:28:58;97733.44;;;11.70;78.81
67397;BME280;57728;50.448;18.824;2023-04-30T00:31:00;97750.56;;;11.83;78.57
67397;BME280;57728;50.448;18.824;2023-04-30T00:33:02;97724.59;;;11.63;78.73
67397;BME280;57728;50.448;18.824;2023-04-30T00:35:04;97715.72;;;11.56;78.67
67397;BME280;57728;50.448;18.824;2023-04-30T00:37:06;97766.38;;;11.81;78.50
67397;BME280;57728;50.448;18.824;2023-04-30T00:39:08;97751.22;;;11.73;78.66
67397;BME280;57728;50.448;18.824;2023-04-30T00:41:09;97730.38;;;11.67;78.64
67397;BME280;57728;50.448;18.824;2023-04-30T00:43:12;97722.34;;;11.60;78.44
67397;BME280;57728;50.448;18.824;2023-04-30T00:45:13;97695.06;;;11.43;78.32
67397;BME280;57728;50.448;18.824;2023-04-30T00:47:14;97718.38;;;11.51;78.51
67397;BME280;57728;50.448;18.824;2023-04-30T00:49:17;97737.91;;;11.60;78.66
67397;BME280;57728;50.448;18.824;2023-04-30T00:51:19;97738.38;;;11.57;78.74
67397;BME280;57728;50.448;18.824;2023-04-30T00:53:21;97723.97;;;11.44;78.73
67397;BME280;57728;50.448;18.824;2023-04-30T00:55:23;97772.53;;;11.76;78.82
67397;BME280;57728;50.448;18.824;2023-04-30T00:57:25;97779.31;;;11.74;78.82
67397;BME280;57728;50.448;18.824;2023-04-30T00:59:27;97735.81;;;11.50;78.88
67397;BME280;57728;50.448;18.824;2023-04-30T01:01:31;97745.81;;;11.61;79.02
67397;BME280;57728;50.448;18.824;2023-04-30T01:03:32;97769.47;;;11.73;78.84
67397;BME280;57728;50.448;18.824;2023-04-30T01:05:35;97732.25;;;11.49;78.91
67397;BME280;57728;50.448;18.824;2023-04-30T01:07:38;97724.72;;;11.40;78.99
67397;BME280;57728;50.448;18.824;2023-04-30T01:09:46;97771.53;;;11.65;79.01
67397;BME280;57728;50.448;18.824;2023-04-30T01:14:28;97771.69;;;11.59;79.43
67397;BME280;57728;50.448;18.824;2023-04-30T01:17:04;97729.13;;;11.29;79.52
67397;BME280;57728;50.448;18.824;2023-04-30T01:21:44;97783.81;;;11.51;79.50
67397;BME280;57728;50.448;18.824;2023-04-30T01:28:53;97740.16;;;11.22;79.67
67397;BME280;57728;50.448;18.824;2023-04-30T01:30:57;97784.28;;;11.48;79.83
67397;BME280;57728;50.448;18.824;2023-04-30T01:32:58;97781.53;;;11.48;80.01
67397;BME280;57728;50.448;18.824;2023-04-30T01:35:01;97785.38;;;11.47;79.79
67397;BME280;57728;50.448;18.824;2023-04-30T01:37:10;97793.53;;;11.47;80.05
67397;BME280;57728;50.448;18.824;2023-04-30T01:39:48;97646.72;;;10.52;79.73
67397;BME280;57728;50.448;18.824;2023-04-30T01:42:15;97808.72;;;11.43;79.75
67397;BME280;57728;50.448;18.824;2023-04-30T01:49:57;97614.91;;;10.17;79.76
67397;BME280;57728;50.448;18.824;2023-04-30T01:52:21;97789.91;;;11.29;79.80
67397;BME280;57728;50.448;18.824;2023-04-30T01:55:04;97795.28;;;11.24;79.57
67397;BME280;57728;50.448;18.824;2023-04-30T01:57:15;97750.22;;;10.81;79.74
67397;BME280;57728;50.448;18.824;2023-04-30T01:59:22;97802.50;;;11.07;79.74
67397;BME280;57728;50.448;18.824;2023-04-30T02:01:28;97807.16;;;11.06;80.07
67397;BME280;57728;50.448;18.824;2023-04-30T02:03:31;97809.19;;;10.99;79.89
67397;BME280;57728;50.448;18.824;2023-04-30T02:05:34;97814.63;;;10.87;79.76
67397;BME280;57728;50.448;18.824;2023-04-30T02:09:41;97736.13;;;10.13;79.91
67397;BME280;57728;50.448;18.824;2023-04-30T02:11:43;97841.25;;;10.61;79.74
67397;BME280;57728;50.448;18.824;2023-04-30T02:13:44;97778.72;;;10.19;79.31
67397;BME280;57728;50.448;18.824;2023-04-30T02:15:46;97742.94;;;9.80;78.96
67397;BME280;57728;50.448;18.824;2023-04-30T02:17:48;97831.19;;;10.08;79.07
67397;BME280;57728;50.448;18.824;2023-04-30T02:19:49;97832.47;;;9.93;79.15
67397;BME280;57728;50.448;18.824;2023-04-30T02:21:50;97815.00;;;9.71;79.28
67397;BME280;57728;50.448;18.824;2023-04-30T02:23:53;97726.63;;;8.89;79.35
67397;BME280;57728;50.448;18.824;2023-04-30T02:25:54;97864.41;;;9.68;79.56
67397;BME280;57728;50.448;18.824;2023-04-30T02:27:55;97788.91;;;9.21;79.56
67397;BME280;57728;50.448;18.824;2023-04-30T02:29:58;97866.31;;;9.49;79.63
67397;BME280;57728;50.448;18.824;2023-04-30T02:32:00;97851.97;;;9.41;79.63
67397;BME280;57728;50.448;18.824;2023-04-30T02:34:01;97818.13;;;9.07;79.29
67397;BME280;57728;50.448;18.824;2023-04-30T02:36:03;97806.72;;;8.98;79.24
67397;BME280;57728;50.448;18.824;2023-04-30T02:38:05;97879.66;;;9.32;79.31
67397;BME280;57728;50.448;18.824;2023-04-30T02:40:07;97864.44;;;9.31;79.21
67397;BME280;57728;50.448;18.824;2023-04-30T02:42:09;97828.16;;;9.06;79.04
67397;BME280;57728;50.448;18.824;2023-04-30T02:44:11;97801.81;;;8.88;78.45
67397;BME280;57728;50.448;18.824;2023-04-30T02:46:12;97854.34;;;9.19;78.43
67397;BME280;57728;50.448;18.824;2023-04-30T02:48:14;97725.31;;;8.36;78.08
67397;BME280;57728;50.448;18.824;2023-04-30T02:50:16;97820.59;;;8.90;77.98
67397;BME280;57728;50.448;18.824;2023-04-30T02:52:17;97803.09;;;8.86;77.75
67397;BME280;57728;50.448;18.824;2023-04-30T02:54:19;97782.41;;;8.66;77.33
67397;BME280;57728;50.448;18.824;2023-04-30T02:56:20;97902.53;;;9.24;77.51
67397;BME280;57728;50.448;18.824;2023-04-30T02:58:22;97890.88;;;9.23;77.31
67397;BME280;57728;50.448;18.824;2023-04-30T03:00:24;97851.97;;;9.04;77.08
67397;BME280;57728;50.448;18.824;2023-04-30T03:02:26;97728.13;;;8.22;76.80
67397;BME280;57728;50.448;18.824;2023-04-30T03:04:27;97850.81;;;8.93;76.59
67397;BME280;57728;50.448;18.824;2023-04-30T03:06:30;97864.34;;;9.00;76.58
67397;BME280;57728;50.448;18.824;2023-04-30T03:08:32;97856.25;;;8.93;76.63
67397;BME280;57728;50.448;18.824;2023-04-30T03:10:33;97897.19;;;9.17;76.70
67397;BME280;57728;50.448;18.824;2023-04-30T03:12:35;97907.81;;;9.19;76.49
67397;BME280;57728;50.448;18.824;2023-04-30T03:14:37;97876.66;;;9.03;76.47
67397;BME280;57728;50.448;18.824;2023-04-30T03:16:38;97726.16;;;8.11;76.31
67397;BME280;57728;50.448;18.824;2023-04-30T03:18:40;97915.53;;;9.22;76.40
67397;BME280;57728;50.448;18.824;2023-04-30T03:20:41;97883.53;;;9.05;76.27
67397;BME280;57728;50.448;18.824;2023-04-30T03:22:43;97917.78;;;9.25;76.29
67397;BME280;57728;50.448;18.824;2023-04-30T03:24:45;97852.03;;;8.79;76.13
67397;BME280;57728;50.448;18.824;2023-04-30T03:26:46;97773.47;;;8.40;76.28
67397;BME280;57728;50.448;18.824;2023-04-30T03:28:48;97921.41;;;9.37;76.22
67397;BME280;57728;50.448;18.824;2023-04-30T03:30:51;97809.94;;;8.70;76.02
67397;BME280;57728;50.448;18.824;2023-04-30T03:32:52;97727.38;;;8.15;75.82
67397;BME280;57728;50.448;18.824;2023-04-30T03:34:53;97787.53;;;8.56;75.87
67397;BME280;57728;50.448;18.824;2023-04-30T03:36:55;97938.25;;;9.46;75.93
67397;BME280;57728;50.448;18.824;2023-04-30T03:38:57;97875.97;;;9.07;75.87
67397;BME280;57728;50.448;18.824;2023-04-30T03:40:58;97943.25;;;9.49;76.06
67397;BME280;57728;50.448;18.824;2023-04-30T03:43:00;97913.47;;;9.36;76.19
67397;BME280;57728;50.448;18.824;2023-04-30T03:45:02;97747.59;;;8.38;75.90
67397;BME280;57728;50.448;18.824;2023-04-30T03:47:04;97865.50;;;9.11;75.96
67397;BME280;57728;50.448;18.824;2023-04-30T03:49:06;97912.44;;;9.37;76.10
67397;BME280;57728;50.448;18.824;2023-04-30T03:51:07;97890.88;;;9.23;75.97
67397;BME280;57728;50.448;18.824;2023-04-30T03:53:09;97792.06;;;8.62;75.91
67397;BME280;57728;50.448;18.824;2023-04-30T03:55:11;97968.00;;;9.59;75.85
67397;BME280;57728;50.448;18.824;2023-04-30T03:57:13;97934.03;;;9.50;76.03
67397;BME280;57728;50.448;18.824;2023-04-30T03:59:14;97961.50;;;9.60;75.81
67397;BME280;57728;50.448;18.824;2023-04-30T04:01:17;97817.03;;;8.71;75.77
67397;BME280;57728;50.448;18.824;2023-04-30T04:03:18;97967.41;;;9.57;75.96
67397;BME280;57728;50.448;18.824;2023-04-30T04:05:20;97923.75;;;9.34;75.71
67397;BME280;57728;50.448;18.824;2023-04-30T04:07:22;97824.13;;;8.72;75.94
67397;BME280;57728;50.448;18.824;2023-04-30T04:09:24;97923.59;;;9.28;75.98
67397;BME280;57728;50.448;18.824;2023-04-30T04:11:25;97920.13;;;9.21;75.75
67397;BME280;57728;50.448;18.824;2023-04-30T04:13:27;97964.81;;;9.44;76.12
67397;BME280;57728;50.448;18.824;2023-04-30T04:15:29;97885.06;;;8.94;75.99
67397;BME280;57728;50.448;18.824;2023-04-30T04:17:30;97870.97;;;8.86;75.89
67397;BME280;57728;50.448;18.824;2023-04-30T04:19:33;97919.34;;;9.14;75.59
67397;BME280;57728;50.448;18.824;2023-04-30T04:21:35;97821.19;;;8.48;75.64
67397;BME280;57728;50.448;18.824;2023-04-30T04:23:41;97910.28;;;9.02;75.66
67397;BME280;57728;50.448;18.824;2023-04-30T04:25:43;97957.09;;;9.22;75.62
67397;BME280;57728;50.448;18.824;2023-04-30T04:27:47;97889.97;;;8.86;75.52
67397;BME280;57728;50.448;18.824;2023-04-30T04:29:48;97944.78;;;9.20;75.67
67397;BME280;57728;50.448;18.824;2023-04-30T04:31:50;97937.31;;;9.15;75.51
67397;BME280;57728;50.448;18.824;2023-04-30T04:33:52;97985.97;;;9.42;75.12
67397;BME280;57728;50.448;18.824;2023-04-30T04:35:58;97920.16;;;8.96;75.14
67397;BME280;57728;50.448;18.824;2023-04-30T04:38:00;97914.56;;;8.91;75.25
67397;BME280;57728;50.448;18.824;2023-04-30T04:40:02;97948.63;;;9.12;75.40
67397;BME280;57728;50.448;18.824;2023-04-30T04:42:05;97876.53;;;8.47;75.40
67397;BME280;57728;50.448;18.824;2023-04-30T04:44:07;97865.78;;;8.59;75.49
67397;BME280;57728;50.448;18.824;2023-04-30T04:46:08;97963.97;;;9.25;75.50
67397;BME280;57728;50.448;18.824;2023-04-30T04:48:10;97960.09;;;9.14;75.31
67397;BME280;57728;50.448;18.824;2023-04-30T04:50:12;98023.88;;;9.55;75.38
67397;BME280;57728;50.448;18.824;2023-04-30T04:52:14;98022.34;;;9.59;75.27
67397;BME280;57728;50.448;18.824;2023-04-30T04:54:15;97954.00;;;9.19;74.99
67397;BME280;57728;50.448;18.824;2023-04-30T04:56:17;97992.28;;;9.36;74.61
67397;BME280;57728;50.448;18.824;2023-04-30T04:58:18;98039.06;;;9.63;74.92
67397;BME280;57728;50.448;18.824;2023-04-30T05:00:20;98004.06;;;9.48;74.54
67397;BME280;57728;50.448;18.824;2023-04-30T05:02:23;97971.28;;;9.24;74.45
67397;BME280;57728;50.448;18.824;2023-04-30T05:04:25;98004.31;;;9.46;74.32
67397;BME280;57728;50.448;18.824;2023-04-30T05:06:27;98044.00;;;9.73;74.15
67397;BME280;57728;50.448;18.824;2023-04-30T05:08:30;98041.69;;;9.70;74.03
67397;BME280;57728;50.448;18.824;2023-04-30T05:10:31;98046.25;;;9.76;74.36
67397;BME280;57728;50.448;18.824;2023-04-30T05:12:34;98057.50;;;9.79;73.78
67397;BME280;57728;50.448;18.824;2023-04-30T05:14:36;98015.13;;;9.53;73.64
67397;BME280;57728;50.448;18.824;2023-04-30T05:16:38;98032.19;;;9.60;73.98
67397;BME280;57728;50.448;18.824;2023-04-30T05:18:39;98064.38;;;9.82;73.96
67397;BME280;57728;50.448;18.824;2023-04-30T05:20:41;98065.41;;;9.81;73.67
67397;BME280;57728;50.448;18.824;2023-04-30T05:22:42;97999.78;;;9.40;73.32
67397;BME280;57728;50.448;18.824;2023-04-30T05:24:44;98075.78;;;9.91;73.51
67397;BME280;57728;50.448;18.824;2023-04-30T05:26:46;98041.25;;;9.73;73.43
67397;BME280;57728;50.448;18.824;2023-04-30T05:28:47;98036.59;;;9.80;73.34
67397;BME280;57728;50.448;18.824;2023-04-30T05:30:48;98011.88;;;9.63;73.26
67397;BME280;57728;50.448;18.824;2023-04-30T05:32:50;97954.69;;;9.33;73.38
67397;BME280;57728;50.448;18.824;2023-04-30T05:34:52;98023.28;;;9.72;73.17
67397;BME280;57728;50.448;18.824;2023-04-30T05:36:53;98086.38;;;10.18;72.76
67397;BME280;57728;50.448;18.824;2023-04-30T05:38:56;97887.34;;;8.98;72.71
67397;BME280;57728;50.448;18.824;2023-04-30T05:40:58;97883.56;;;8.99;72.44
67397;BME280;57728;50.448;18.824;2023-04-30T05:43:00;97949.19;;;9.39;72.29
67397;BME280;57728;50.448;18.824;2023-04-30T05:45:03;98098.13;;;10.37;72.45
67397;BME280;57728;50.448;18.824;2023-04-30T05:47:04;98101.59;;;10.44;72.30
67397;BME280;57728;50.448;18.824;2023-04-30T05:49:05;98095.00;;;10.52;72.41
67397;BME280;57728;50.448;18.824;2023-04-30T05:51:07;98111.72;;;10.55;71.91
67397;BME280;57728;50.448;18.824;2023-04-30T05:53:10;98108.69;;;10.63;72.16
67397;BME280;57728;50.448;18.824;2023-04-30T05:55:13;98119.09;;;10.66;71.08
67397;BME280;57728;50.448;18.824;2023-04-30T05:57:15;98106.69;;;10.71;71.32
67397;BME280;57728;50.448;18.824;2023-04-30T05:59:17;98103.28;;;10.75;71.17
67397;BME280;57728;50.448;18.824;2023-04-30T06:01:19;97960.06;;;9.76;70.67
67397;BME280;57728;50.448;18.824;2023-04-30T06:03:21;98092.13;;;10.65;69.96
67397;BME280;57728;50.448;18.824;2023-04-30T06:05:23;98112.81;;;10.84;69.85
67397;BME280;57728;50.448;18.824;2023-04-30T06:07:24;98086.28;;;10.61;69.67
67397;BME280;57728;50.448;18.824;2023-04-30T06:09:26;98032.94;;;10.42;69.56
67397;BME280;57728;50.448;18.824;2023-04-30T06:11:29;98072.97;;;10.72;68.78
67397;BME280;57728;50.448;18.824;2023-04-30T06:13:31;98038.34;;;10.60;69.39
67397;BME280;57728;50.448;18.824;2023-04-30T06:15:33;97932.03;;;9.94;69.18
67397;BME280;57728;50.448;18.824;2023-04-30T06:17:35;98091.91;;;11.09;69.13
67397;BME280;57728;50.448;18.824;2023-04-30T06:19:36;98051.25;;;10.95;68.72
67397;BME280;57728;50.448;18.824;2023-04-30T06:21:39;98078.91;;;11.23;68.38
67397;BME280;57728;50.448;18.824;2023-04-30T06:23:40;98101.78;;;11.33;67.52
67397;BME280;57728;50.448;18.824;2023-04-30T06:25:41;97957.44;;;10.49;67.35
67397;BME280;57728;50.448;18.824;2023-04-30T06:27:44;97944.63;;;10.38;66.97
67397;BME280;57728;50.448;18.824;2023-04-30T06:29:45;98128.84;;;11.47;66.38
67397;BME280;57728;50.448;18.824;2023-04-30T06:31:46;98107.47;;;11.32;65.81
67397;BME280;57728;50.448;18.824;2023-04-30T06:33:48;98123.25;;;11.42;65.71
67397;BME280;57728;50.448;18.824;2023-04-30T06:35:50;98119.44;;;11.31;65.70
67397;BME280;57728;50.448;18.824;2023-04-30T06:37:54;98087.19;;;11.16;65.76
67397;BME280;57728;50.448;18.824;2023-04-30T06:39:56;98125.03;;;11.36;66.00
67397;BME280;57728;50.448;18.824;2023-04-30T06:41:57;98075.28;;;10.98;65.73
67397;BME280;57728;50.448;18.824;2023-04-30T06:43:59;98126.69;;;11.37;65.57
67397;BME280;57728;50.448;18.824;2023-04-30T06:46:01;98128.84;;;11.47;66.08
67397;BME280;57728;50.448;18.824;2023-04-30T06:48:02;98064.34;;;11.17;66.40
67397;BME280;57728;50.448;18.824;2023-04-30T06:50:04;98091.88;;;11.51;66.48
67397;BME280;57728;50.448;18.824;2023-04-30T06:52:07;98132.50;;;11.95;65.57
67397;BME280;57728;50.448;18.824;2023-04-30T06:54:08;98105.78;;;11.85;64.79
67397;BME280;57728;50.448;18.824;2023-04-30T06:56:10;98142.31;;;12.19;65.00
67397;BME280;57728;50.448;18.824;2023-04-30T06:58:13;98049.09;;;11.75;64.05
67397;BME280;57728;50.448;18.824;2023-04-30T07:00:14;98082.53;;;11.94;62.23
67397;BME280;57728;50.448;18.824;2023-04-30T07:02:16;98144.06;;;12.26;62.13
67397;BME280;57728;50.448;18.824;2023-04-30T07:04:18;98113.84;;;12.03;62.57
67397;BME280;57728;50.448;18.824;2023-04-30T07:06:20;98080.72;;;11.76;61.98
67397;BME280;57728;50.448;18.824;2023-04-30T07:08:21;98163.94;;;12.09;62.41
67397;BME280;57728;50.448;18.824;2023-04-30T07:10:23;98032.84;;;11.33;61.08
67397;BME280;57728;50.448;18.824;2023-04-30T07:12:24;97974.13;;;10.83;61.64
67397;BME280;57728;50.448;18.824;2023-04-30T07:14:26;98146.72;;;11.97;61.44
67397;BME280;57728;50.448;18.824;2023-04-30T07:16:29;98144.31;;;11.88;61.04
67397;BME280;57728;50.448;18.824;2023-04-30T07:18:32;98140.44;;;11.96;61.26
67397;BME280;57728;50.448;18.824;2023-04-30T07:20:33;97940.22;;;10.67;60.29
67397;BME280;57728;50.448;18.824;2023-04-30T07:22:35;98135.28;;;11.88;60.74
67397;BME280;57728;50.448;18.824;2023-04-30T07:24:36;98106.34;;;11.75;61.22
67397;BME280;57728;50.448;18.824;2023-04-30T07:26:38;98137.09;;;11.94;60.83
67397;BME280;57728;50.448;18.824;2023-04-30T07:28:40;98133.66;;;11.99;60.73
67397;BME280;57728;50.448;18.824;2023-04-30T07:30:41;98123.69;;;12.04;60.92
67397;BME280;57728;50.448;18.824;2023-04-30T07:32:43;98046.13;;;11.53;60.44
67397;BME280;57728;50.448;18.824;2023-04-30T07:34:45;98008.31;;;11.33;59.50
67397;BME280;57728;50.448;18.824;2023-04-30T07:36:47;97935.53;;;10.86;58.12
67397;BME280;57728;50.448;18.824;2023-04-30T07:38:48;98085.13;;;11.77;57.02
67397;BME280;57728;50.448;18.824;2023-04-30T07:40:51;98068.53;;;11.67;57.10
67397;BME280;57728;50.448;18.824;2023-04-30T07:42:52;98139.38;;;12.09;57.13
67397;BME280;57728;50.448;18.824;2023-04-30T07:44:53;98073.63;;;11.63;57.08
67397;BME280;57728;50.448;18.824;2023-04-30T07:46:55;98144.81;;;12.21;57.20
67397;BME280;57728;50.448;18.824;2023-04-30T07:48:57;98078.34;;;11.92;57.31
67397;BME280;57728;50.448;18.824;2023-04-30T07:50:58;98136.59;;;12.45;57.59
67397;BME280;57728;50.448;18.824;2023-04-30T07:53:01;97982.91;;;11.56;57.89
67397;BME280;57728;50.448;18.824;2023-04-30T07:55:03;98081.97;;;12.45;56.44
67397;BME280;57728;50.448;18.824;2023-04-30T07:57:05;98043.13;;;12.14;55.82
67397;BME280;57728;50.448;18.824;2023-04-30T07:59:07;98044.13;;;12.36;53.84
67397;BME280;57728;50.448;18.824;2023-04-30T08:01:08;98157.88;;;13.12;54.60
67397;BME280;57728;50.448;18.824;2023-04-30T08:03:10;98158.63;;;13.24;54.53
67397;BME280;57728;50.448;18.824;2023-04-30T08:05:12;98085.44;;;12.98;54.56
67397;BME280;57728;50.448;18.824;2023-04-30T08:07:14;98153.75;;;13.55;54.73
67397;BME280;57728;50.448;18.824;2023-04-30T08:09:15;98091.50;;;13.46;54.31
67397;BME280;57728;50.448;18.824;2023-04-30T08:11:18;98167.94;;;14.03;53.36
67397;BME280;57728;50.448;18.824;2023-04-30T08:13:19;98134.78;;;14.00;54.25
67397;BME280;57728;50.448;18.824;2023-04-30T08:15:20;98158.91;;;14.42;51.89
67397;BME280;57728;50.448;18.824;2023-04-30T08:17:22;98110.28;;;14.10;52.08
67397;BME280;57728;50.448;18.824;2023-04-30T08:19:23;98141.53;;;14.31;51.38
67397;BME280;57728;50.448;18.824;2023-04-30T08:21:25;98162.00;;;14.45;49.18
67397;BME280;57728;50.448;18.824;2023-04-30T08:23:28;97929.63;;;12.93;50.33
67397;BME280;57728;50.448;18.824;2023-04-30T08:25:30;97962.31;;;13.21;50.59
67397;BME280;57728;50.448;18.824;2023-04-30T08:27:31;98176.16;;;14.59;49.67
67397;BME280;57728;50.448;18.824;2023-04-30T08:29:33;97989.41;;;13.40;48.67
67397;BME280;57728;50.448;18.824;2023-04-30T08:31:35;98168.88;;;14.48;48.84
67397;BME280;57728;50.448;18.824;2023-04-30T08:33:36;98197.97;;;14.32;48.79
67397;BME280;57728;50.448;18.824;2023-04-30T08:35:38;98154.50;;;14.02;48.50
67397;BME280;57728;50.448;18.824;2023-04-30T08:37:39;98075.28;;;13.56;49.32
67397;BME280;57728;50.448;18.824;2023-04-30T08:39:41;98149.38;;;14.05;49.04
67397;BME280;57728;50.448;18.824;2023-04-30T08:41:45;98144.56;;;14.13;49.32
67397;BME280;57728;50.448;18.824;2023-04-30T08:44:02;98057.94;;;13.67;50.29
67397;BME280;57728;50.448;18.824;2023-04-30T08:46:07;98179.75;;;14.43;47.88
67397;BME280;57728;50.448;18.824;2023-04-30T08:48:10;98035.66;;;13.41;46.97
67397;BME280;57728;50.448;18.824;2023-04-30T08:50:13;98051.81;;;13.43;47.14
67397;BME280;57728;50.448;18.824;2023-04-30T08:52:15;98174.22;;;14.21;47.19
67397;BME280;57728;50.448;18.824;2023-04-30T08:54:18;98047.75;;;13.46;46.93
67397;BME280;57728;50.448;18.824;2023-04-30T08:56:19;98062.44;;;13.39;45.50
67397;BME280;57728;50.448;18.824;2023-04-30T08:58:21;98150.34;;;13.99;45.63
67397;BME280;57728;50.448;18.824;2023-04-30T09:00:23;98185.69;;;14.18;46.98
67397;BME280;57728;50.448;18.824;2023-04-30T09:02:24;98158.56;;;13.99;46.88
67397;BME280;57728;50.448;18.824;2023-04-30T09:04:25;98158.00;;;14.14;46.58
67397;BME280;57728;50.448;18.824;2023-04-30T09:06:27;98117.22;;;14.18;45.23
67397;BME280;57728;50.448;18.824;2023-04-30T09:10:46;98190.06;;;15.46;46.11
67397;BME280;57728;50.448;18.824;2023-04-30T09:13:01;98192.31;;;16.09;45.75
67397;BME280;57728;50.448;18.824;2023-04-30T09:15:05;98174.47;;;16.55;43.71
67397;BME280;57728;50.448;18.824;2023-04-30T09:17:08;98157.19;;;17.23;44.19
67397;BME280;57728;50.448;18.824;2023-04-30T09:19:27;98114.00;;;17.39;42.04
67397;BME280;57728;50.448;18.824;2023-04-30T09:21:32;98058.16;;;17.69;42.43
67397;BME280;57728;50.448;18.824;2023-04-30T09:23:35;98157.50;;;19.20;41.74
67397;BME280;57728;50.448;18.824;2023-04-30T09:25:38;98201.25;;;19.92;38.95
67397;BME280;57728;50.448;18.824;2023-04-30T09:27:43;98204.84;;;20.27;39.77
67397;BME280;57728;50.448;18.824;2023-04-30T09:29:45;98195.78;;;20.75;37.78
67397;BME280;57728;50.448;18.824;2023-04-30T09:31:47;98188.97;;;20.62;36.29
67397;BME280;57728;50.448;18.824;2023-04-30T09:33:48;98202.00;;;20.33;35.87
67397;BME280;57728;50.448;18.824;2023-04-30T09:35:50;98196.59;;;20.17;36.98
67397;BME280;57728;50.448;18.824;2023-04-30T09:37:52;98202.94;;;19.88;36.76
67397;BME280;57728;50.448;18.824;2023-04-30T09:39:54;98171.31;;;19.20;37.25
67397;BME280;57728;50.448;18.824;2023-04-30T09:42:09;98212.50;;;18.86;37.64
67397;BME280;57728;50.448;18.824;2023-04-30T09:44:31;98189.50;;;18.15;37.43
67397;BME280;57728;50.448;18.824;2023-04-30T09:46:36;98122.28;;;17.64;37.63
67397;BME280;57728;50.448;18.824;2023-04-30T09:48:40;98184.25;;;18.24;38.23
67397;BME280;57728;50.448;18.824;2023-04-30T09:50:45;98187.47;;;18.87;37.28
67397;BME280;57728;50.448;18.824;2023-04-30T09:52:52;98167.50;;;19.56;37.56
67397;BME280;57728;50.448;18.824;2023-04-30T09:54:53;98161.91;;;20.35;37.23
67397;BME280;57728;50.448;18.824;2023-04-30T09:57:01;98189.31;;;21.09;35.69
67397;BME280;57728;50.448;18.824;2023-04-30T09:59:06;98207.22;;;21.17;35.66
67397;BME280;57728;50.448;18.824;2023-04-30T10:01:10;98137.59;;;21.05;34.19
67397;BME280;57728;50.448;18.824;2023-04-30T10:03:14;98131.06;;;21.58;32.83
67397;BME280;57728;50.448;18.824;2023-04-30T10:05:17;98181.09;;;21.99;32.69
67397;BME280;57728;50.448;18.824;2023-04-30T10:07:20;98197.03;;;22.27;33.02
67397;BME280;57728;50.448;18.824;2023-04-30T10:09:34;98155.56;;;22.36;32.55
67397;BME280;57728;50.448;18.824;2023-04-30T10:11:52;98171.94;;;22.93;33.00
67397;BME280;57728;50.448;18.824;2023-04-30T10:14:02;98188.03;;;23.60;31.67
67397;BME280;57728;50.448;18.824;2023-04-30T10:16:33;98193.31;;;23.84;30.30
67397;BME280;57728;50.448;18.824;2023-04-30T10:18:45;98163.69;;;23.80;29.78
67397;BME280;57728;50.448;18.824;2023-04-30T10:20:52;98059.06;;;23.02;29.10
67397;BME280;57728;50.448;18.824;2023-04-30T10:22:56;98183.34;;;23.69;29.88
67397;BME280;57728;50.448;18.824;2023-04-30T10:25:00;98047.81;;;22.71;30.09
67397;BME280;57728;50.448;18.824;2023-04-30T10:27:02;98121.75;;;23.17;30.76
67397;BME280;57728;50.448;18.824;2023-04-30T10:29:06;98154.88;;;22.86;30.30
67397;BME280;57728;50.448;18.824;2023-04-30T10:31:09;98186.00;;;22.55;30.80
67397;BME280;57728;50.448;18.824;2023-04-30T10:35:44;98027.31;;;22.11;29.63
67397;BME280;57728;50.448;18.824;2023-04-30T10:40:18;98147.06;;;23.29;28.84
67397;BME280;57728;50.448;18.824;2023-04-30T10:42:22;98042.13;;;22.76;29.79
67397;BME280;57728;50.448;18.824;2023-04-30T10:44:24;98165.81;;;23.83;29.61
67397;BME280;57728;50.448;18.824;2023-04-30T10:46:27;98110.72;;;23.62;30.06
67397;BME280;57728;50.448;18.824;2023-04-30T10:48:33;98084.13;;;23.70;27.33
67397;BME280;57728;50.448;18.824;2023-04-30T10:50:40;98174.13;;;24.19;26.82
67397;BME280;57728;50.448;18.824;2023-04-30T10:52:46;98083.75;;;23.63;26.92
67397;BME280;57728;50.448;18.824;2023-04-30T10:54:49;98096.72;;;23.67;26.22
67397;BME280;57728;50.448;18.824;2023-04-30T10:56:51;98109.84;;;23.53;26.30
67397;BME280;57728;50.448;18.824;2023-04-30T10:58:53;98103.66;;;23.56;27.08
67397;BME280;57728;50.448;18.824;2023-04-30T11:03:08;98022.63;;;23.63;25.67
67397;BME280;57728;50.448;18.824;2023-04-30T11:05:13;98157.09;;;24.44;26.89
67397;BME280;57728;50.448;18.824;2023-04-30T11:07:24;98050.59;;;23.89;27.49
67397;BME280;57728;50.448;18.824;2023-04-30T11:11:38;98106.00;;;24.40;26.51
67397;BME280;57728;50.448;18.824;2023-04-30T11:13:44;98007.28;;;23.88;26.40
67397;BME280;57728;50.448;18.824;2023-04-30T11:15:46;98109.34;;;24.59;26.73